Time;durP1;ratioP1;P1;durP2;ratioP2;P2;SDS_P1;SDS_P2;PMS_P1;PMS_P2;Temp;Humidity;BMP_temperature;BMP_pressure;BME280_temperature;BME280_humidity;BME280_pressure;Samples;Min_cycle;Max_cycle;Signal;HPM_P1;HPM_P2
2023/04/05 00:01:29;;;;;;;8.60;2.72;;;2.40;98.80;;;;;;5025104;28;20116;-65
2023/04/05 00:03:56;;;;;;;4.32;2.80;;;2.30;98.80;;;;;;5028405;28;20037;-66
2023/04/05 00:06:33;;;;;;;7.68;3.47;;;2.30;99.20;;;;;;5022925;28;20021;-68
2023/04/05 00:09:00;;;;;;;7.63;2.10;;;2.20;99.80;;;;;;5019958;28;20059;-66
2023/04/05 00:11:27;;;;;;;5.10;2.55;;;2.20;99.60;;;;;;5026240;28;20041;-66
2023/04/05 00:13:52;;;;;;;6.65;3.33;;;2.10;99.60;;;;;;5006446;28;20061;-65
2023/04/05 00:16:19;;;;;;;4.70;2.70;;;2.20;99.60;;;;;;5027138;28;20045;-66
2023/04/05 00:18:48;;;;;;;8.68;3.20;;;2.20;99.40;;;;;;5021131;28;20667;-67
2023/04/05 00:21:20;;;;;;;8.60;3.20;;;2.30;99.60;;;;;;5022533;28;20064;-65
2023/04/05 00:23:47;;;;;;;6.10;3.08;;;2.30;99.20;;;;;;5018582;28;20029;-66
2023/04/05 00:26:13;;;;;;;5.05;2.38;;;2.30;99.50;;;;;;5023216;28;20021;-68
2023/04/05 00:28:39;;;;;;;7.15;2.72;;;2.30;98.80;;;;;;5027103;28;20036;-65
2023/04/05 00:31:05;;;;;;;10.95;2.80;;;2.40;98.40;;;;;;5020540;28;20022;-66
2023/04/05 00:33:31;;;;;;;8.98;2.22;;;2.40;98.70;;;;;;5013669;28;20043;-66
2023/04/05 00:35:57;;;;;;;4.07;2.70;;;2.50;98.20;;;;;;5025100;28;20026;-67
2023/04/05 00:38:22;;;;;;;5.25;2.63;;;2.50;98.20;;;;;;5024558;28;20053;-67
2023/04/05 00:40:48;;;;;;;7.35;3.33;;;2.60;98.30;;;;;;5027245;28;20026;-66
2023/04/05 00:43:13;;;;;;;5.57;2.13;;;2.60;98.60;;;;;;5030549;28;20033;-67
2023/04/05 00:45:39;;;;;;;9.02;2.78;;;2.60;98.30;;;;;;5026008;28;20033;-66
2023/04/05 00:48:05;;;;;;;5.82;2.42;;;2.50;98.40;;;;;;5029146;28;20041;-65
2023/04/05 00:50:31;;;;;;;7.00;2.75;;;2.60;98.00;;;;;;5026949;28;20030;-66
2023/04/05 00:52:57;;;;;;;4.18;2.17;;;2.60;98.10;;;;;;5028132;28;20040;-67
2023/04/05 00:55:24;;;;;;;6.18;2.78;;;2.70;97.90;;;;;;5027388;28;20020;-66
2023/04/05 00:57:49;;;;;;;3.55;2.10;;;2.70;98.10;;;;;;5024210;28;20022;-66
2023/04/05 01:00:15;;;;;;;6.97;2.13;;;2.60;97.90;;;;;;5023191;28;20533;-66
2023/04/05 01:02:48;;;;;;;5.88;2.28;;;2.60;98.30;;;;;;5029990;28;20050;-67
2023/04/05 01:05:46;;;;;;;5.18;3.17;;;2.60;98.00;;;;;;5029570;28;20479;-67
2023/04/05 01:08:27;;;;;;;6.53;3.08;;;2.60;97.60;;;;;;5022849;28;20130;-64
2023/04/05 01:11:01;;;;;;;5.32;2.45;;;2.60;98.50;;;;;;5027179;28;20091;-66
2023/04/05 01:13:29;;;;;;;8.23;3.15;;;2.60;97.80;;;;;;5005445;28;20091;-65
2023/04/05 01:15:54;;;;;;;5.10;3.10;;;2.70;97.60;;;;;;5036261;22;20076;-64
2023/04/05 01:18:20;;;;;;;7.80;2.58;;;2.70;98.00;;;;;;5009180;28;20068;-64
2023/04/05 01:20:57;;;;;;;4.70;2.55;;;2.70;97.70;;;;;;5003861;28;20506;-64
2023/04/05 01:24:11;;;;;;;4.75;2.72;;;2.70;98.00;;;;;;5006150;28;20503;-64
2023/04/05 01:27:06;;;;;;;9.55;2.67;;;2.70;98.00;;;;;;4977669;28;20132;-65
2023/04/05 01:29:31;;;;;;;;;;;2.70;98.70;;;;;;5006397;28;20116;-64
2023/04/05 01:32:22;;;;;;;7.35;2.60;;;2.60;98.70;;;;;;4998018;28;19917;-65
2023/04/05 01:35:13;;;;;;;9.20;3.13;;;2.60;98.40;;;;;;5003541;28;20431;-64
2023/04/05 01:37:40;;;;;;;4.78;2.60;;;2.60;99.20;;;;;;4989983;28;20045;-64
2023/04/05 01:40:07;;;;;;;4.53;2.97;;;2.50;99.10;;;;;;5004500;28;20109;-64
2023/04/05 01:42:33;;;;;;;4.63;2.80;;;2.40;99.80;;;;;;5005074;28;20041;-64
2023/04/05 01:44:58;;;;;;;5.68;2.13;;;2.50;98.30;;;;;;5001184;28;20446;-63
2023/04/05 01:47:24;;;;;;;8.32;2.65;;;2.40;98.60;;;;;;5004337;28;20052;-63
2023/04/05 01:49:49;;;;;;;4.60;2.47;;;2.40;98.40;;;;;;5004825;28;20026;-65
2023/04/05 01:52:15;;;;;;;6.57;2.80;;;2.30;98.50;;;;;;5004330;28;20026;-63
2023/04/05 01:54:41;;;;;;;6.55;2.67;;;2.30;98.60;;;;;;5017680;28;20025;-64
2023/04/05 01:57:06;;;;;;;5.03;2.85;;;2.20;99.00;;;;;;5004399;28;20109;-64
2023/04/05 01:59:32;;;;;;;13.52;2.88;;;2.10;99.10;;;;;;5010206;28;20037;-65
2023/04/05 02:01:57;;;;;;;5.57;2.40;;;2.00;99.60;;;;;;5008971;28;20060;-64
2023/04/05 02:04:23;;;;;;;11.05;3.08;;;2.10;99.90;;;;;;5010465;28;20213;-65
2023/04/05 02:06:49;;;;;;;4.20;2.85;;;1.90;99.90;;;;;;5009491;28;20056;-63
2023/04/05 02:09:15;;;;;;;5.97;2.80;;;1.80;99.90;;;;;;5008871;28;20030;-64
2023/04/05 02:11:40;;;;;;;8.82;2.70;;;1.80;99.90;;;;;;5011552;28;20057;-64
2023/04/05 02:14:06;;;;;;;7.90;3.00;;;1.80;99.90;;;;;;4996877;28;20121;-64
2023/04/05 02:16:32;;;;;;;4.35;2.47;;;1.70;99.90;;;;;;5004413;28;20561;-63
2023/04/05 02:18:58;;;;;;;5.38;2.50;;;1.60;99.90;;;;;;5008658;28;20144;-63
2023/04/05 02:21:27;;;;;;;10.23;2.88;;;1.50;99.90;;;;;;5007570;28;20030;-64
2023/04/05 02:23:53;;;;;;;7.03;2.50;;;1.40;99.90;;;;;;5011083;28;20394;-63
2023/04/05 02:26:20;;;;;;;5.35;2.40;;;1.40;99.90;;;;;;5008272;28;20120;-65
2023/04/05 02:28:46;;;;;;;7.78;2.65;;;1.30;99.90;;;;;;5011384;28;20080;-64
2023/04/05 02:31:12;;;;;;;5.60;2.95;;;1.20;99.90;;;;;;5004154;28;20490;-65
2023/04/05 02:33:39;;;;;;;8.32;3.13;;;1.20;99.90;;;;;;4999805;28;20092;-65
2023/04/05 02:36:10;;;;;;;7.38;3.00;;;1.20;99.90;;;;;;4997593;28;20435;-63
2023/04/05 02:38:36;;;;;;;7.15;2.47;;;1.20;99.90;;;;;;5010847;28;20030;-64
2023/04/05 02:41:02;;;;;;;7.60;3.15;;;1.30;99.90;;;;;;5009519;28;20026;-63
2023/04/05 02:43:28;;;;;;;4.38;2.80;;;1.20;99.90;;;;;;5000125;28;20065;-64
2023/04/05 02:45:53;;;;;;;6.88;3.25;;;1.20;99.90;;;;;;5008837;28;20029;-64
2023/04/05 02:48:20;;;;;;;5.82;2.92;;;1.20;99.90;;;;;;5007377;28;20113;-64
2023/04/05 02:50:49;;;;;;;8.23;3.33;;;1.30;99.90;;;;;;5006710;28;20037;-64
2023/04/05 02:53:16;;;;;;;9.65;2.88;;;1.30;99.90;;;;;;5009404;28;20417;-63
2023/04/05 02:55:41;;;;;;;9.88;2.70;;;1.30;99.90;;;;;;5006653;28;20037;-64
2023/04/05 02:58:07;;;;;;;8.00;2.60;;;1.30;99.90;;;;;;5008640;28;20033;-64
2023/04/05 03:00:33;;;;;;;6.00;2.90;;;1.20;99.90;;;;;;5006384;28;20555;-64
2023/04/05 03:02:59;;;;;;;8.30;3.03;;;1.20;99.90;;;;;;5003589;28;20042;-65
2023/04/05 03:05:24;;;;;;;8.27;2.80;;;1.10;99.90;;;;;;5002428;28;20057;-64
2023/04/05 03:07:50;;;;;;;5.78;2.78;;;1.00;99.90;;;;;;5007202;28;20073;-64
2023/04/05 03:10:17;;;;;;;6.28;3.10;;;0.90;99.90;;;;;;5007147;28;20030;-64
2023/04/05 03:12:46;;;;;;;8.27;2.67;;;0.90;99.90;;;;;;4979925;28;20038;-65
2023/04/05 03:15:11;;;;;;;10.20;3.45;;;0.90;99.90;;;;;;5007416;28;20034;-65
2023/04/05 03:17:37;;;;;;;5.87;3.23;;;0.90;99.90;;;;;;5009159;28;20037;-64
2023/04/05 03:20:05;;;;;;;8.10;2.87;;;0.90;99.90;;;;;;5005627;28;20117;-64
2023/04/05 03:22:32;;;;;;;6.32;2.83;;;0.90;99.90;;;;;;5009533;28;20029;-64
2023/04/05 03:24:58;;;;;;;7.82;2.85;;;0.90;99.90;;;;;;5006787;28;20030;-63
2023/04/05 03:27:25;;;;;;;6.43;2.67;;;0.90;99.90;;;;;;5008416;28;20099;-64
2023/04/05 03:29:50;;;;;;;7.03;3.50;;;0.90;99.90;;;;;;5007817;28;20036;-65
2023/04/05 03:32:16;;;;;;;5.78;2.50;;;0.90;99.90;;;;;;5008683;28;20025;-64
2023/04/05 03:34:42;;;;;;;6.63;2.85;;;0.90;99.90;;;;;;5008903;28;20072;-64
2023/04/05 03:37:08;;;;;;;8.73;3.57;;;0.90;99.90;;;;;;5010082;28;20105;-64
2023/04/05 03:39:34;;;;;;;6.03;4.33;;;0.80;99.90;;;;;;5007764;28;20433;-65
2023/04/05 03:42:00;;;;;;;6.13;2.63;;;0.70;99.90;;;;;;5009317;28;20030;-64
2023/04/05 03:44:26;;;;;;;6.70;2.93;;;0.70;99.90;;;;;;5009943;28;20030;-65
2023/04/05 03:46:51;;;;;;;5.43;3.17;;;0.70;99.90;;;;;;5008494;28;20423;-64
2023/04/05 03:49:18;;;;;;;9.20;3.40;;;0.60;99.90;;;;;;5009815;28;20037;-64
2023/04/05 03:51:45;;;;;;;7.30;2.87;;;0.60;99.90;;;;;;5006796;28;20537;-64
2023/04/05 03:54:11;;;;;;;5.23;2.77;;;0.60;99.90;;;;;;5005852;28;20117;-64
2023/04/05 03:56:37;;;;;;;11.38;3.78;;;0.60;99.90;;;;;;5004385;28;20034;-64
2023/04/05 03:59:02;;;;;;;8.87;2.70;;;0.60;99.90;;;;;;5006340;28;20100;-65
2023/04/05 04:01:29;;;;;;;10.07;3.20;;;0.50;99.90;;;;;;5002219;28;20104;-63
2023/04/05 04:03:55;;;;;;;5.13;2.87;;;0.40;99.90;;;;;;5006750;28;20037;-63
2023/04/05 04:06:20;;;;;;;5.73;3.07;;;0.40;99.90;;;;;;5004591;28;20030;-64
2023/04/05 04:08:46;;;;;;;7.50;3.63;;;0.40;99.90;;;;;;5005511;28;20539;-64
2023/04/05 04:11:11;;;;;;;4.00;2.50;;;0.30;99.90;;;;;;5011032;28;20180;-65
2023/04/05 04:13:37;;;;;;;8.70;2.70;;;0.30;99.90;;;;;;4989693;28;20061;-64
2023/04/05 04:16:03;;;;;;;8.53;2.43;;;0.40;99.90;;;;;;5011716;28;20037;-64
2023/04/05 04:18:28;;;;;;;8.33;3.43;;;0.40;99.90;;;;;;5014106;28;20538;-63
2023/04/05 04:20:55;;;;;;;7.80;3.17;;;0.30;99.90;;;;;;5007899;28;20033;-64
2023/04/05 04:23:21;;;;;;;8.37;3.73;;;0.30;99.90;;;;;;5009576;28;20021;-64
2023/04/05 04:25:53;;;;;;;7.77;3.00;;;0.20;99.90;;;;;;5011480;28;21850;-63
2023/04/05 04:28:19;;;;;;;5.93;3.07;;;0.10;99.90;;;;;;5009916;28;20034;-64
2023/04/05 04:30:45;;;;;;;10.30;3.33;;;0.10;99.90;;;;;;5014649;28;20018;-64
2023/04/05 04:33:11;;;;;;;7.20;3.10;;;-0.10;99.90;;;;;;5010126;28;20025;-63
2023/04/05 04:35:39;;;;;;;10.13;4.50;;;-0.20;99.90;;;;;;5007529;28;20044;-64
2023/04/05 04:38:06;;;;;;;14.33;5.70;;;-0.20;99.90;;;;;;5003402;28;20038;-64
2023/04/05 04:40:38;;;;;;;9.97;4.20;;;-0.20;99.90;;;;;;5010844;28;20411;-64
2023/04/05 04:43:13;;;;;;;7.73;3.30;;;-0.20;99.90;;;;;;5009745;28;20033;-64
2023/04/05 04:45:39;;;;;;;7.10;3.17;;;-0.10;99.90;;;;;;5014183;28;20065;-64
2023/04/05 04:48:04;;;;;;;7.93;3.57;;;0.00;99.90;;;;;;5009587;28;20036;-64
2023/04/05 04:50:31;;;;;;;9.43;3.60;;;0.10;99.90;;;;;;5008111;28;20034;-65
2023/04/05 04:53:00;;;;;;;7.27;3.43;;;0.10;99.90;;;;;;5008560;28;20052;-64
2023/04/05 04:55:32;;;;;;;7.30;3.30;;;0.10;99.90;;;;;;5009425;28;20033;-63
2023/04/05 04:57:58;;;;;;;7.97;3.97;;;0.10;99.90;;;;;;5008530;28;20101;-64
2023/04/05 05:00:24;;;;;;;13.20;3.73;;;0.20;99.90;;;;;;5003053;28;20164;-64
2023/04/05 05:02:54;;;;;;;9.33;3.57;;;0.10;99.90;;;;;;5010665;28;20478;-65
2023/04/05 05:05:21;;;;;;;6.43;3.73;;;0.10;99.90;;;;;;5007075;28;20064;-64
2023/04/05 05:07:47;;;;;;;7.23;3.47;;;0.20;99.90;;;;;;5009542;28;20057;-63
2023/04/05 05:10:17;;;;;;;9.37;3.27;;;0.20;99.90;;;;;;5010001;28;20034;-64
2023/04/05 05:12:43;;;;;;;5.37;3.10;;;0.20;99.90;;;;;;5001877;28;20037;-63
2023/04/05 05:15:09;;;;;;;4.73;2.87;;;0.30;99.90;;;;;;4992412;28;20065;-63
2023/04/05 05:17:36;;;;;;;5.50;2.93;;;0.30;99.90;;;;;;5007457;28;20399;-64
2023/04/05 05:20:08;;;;;;;6.23;3.67;;;0.40;99.90;;;;;;5008350;28;20026;-64
2023/04/05 05:22:35;;;;;;;8.63;3.60;;;0.50;99.90;;;;;;5010457;28;20034;-64
2023/04/05 05:25:00;;;;;;;8.47;2.60;;;0.60;99.90;;;;;;5008967;28;20073;-64
2023/04/05 05:27:27;;;;;;;8.33;3.03;;;0.60;99.90;;;;;;5012150;28;20439;-63
2023/04/05 05:29:52;;;;;;;4.40;2.70;;;0.70;99.90;;;;;;5013440;28;20340;-63
2023/04/05 05:32:18;;;;;;;5.93;2.93;;;0.80;99.90;;;;;;5011995;28;20034;-64
2023/04/05 05:34:44;;;;;;;5.43;2.53;;;0.80;99.90;;;;;;5010899;28;20026;-63
2023/04/05 05:37:11;;;;;;;9.65;3.67;;;0.90;99.90;;;;;;5013090;28;20014;-64
2023/04/05 05:39:37;;;;;;;4.63;2.78;;;1.00;99.90;;;;;;5009648;28;20034;-65
2023/04/05 05:42:03;;;;;;;7.90;2.95;;;1.20;99.90;;;;;;5011750;28;20035;-64
2023/04/05 05:44:31;;;;;;;6.65;2.97;;;1.30;99.90;;;;;;5013953;28;20482;-63
2023/04/05 05:46:57;;;;;;;5.32;2.53;;;1.50;99.90;;;;;;5010710;28;20101;-64
2023/04/05 05:49:23;;;;;;;8.90;3.05;;;1.60;99.90;;;;;;5010689;28;20510;-64
2023/04/05 05:51:49;;;;;;;10.77;3.78;;;1.70;99.90;;;;;;5007505;28;20038;-64
2023/04/05 05:54:15;;;;;;;5.05;3.00;;;1.90;99.90;;;;;;5010679;28;20046;-64
2023/04/05 05:56:41;;;;;;;6.50;3.53;;;2.10;99.90;;;;;;5006908;28;20041;-63
2023/04/05 05:59:06;;;;;;;5.55;2.75;;;2.20;99.90;;;;;;5006692;28;20033;-66
2023/04/05 06:01:33;;;;;;;4.70;2.47;;;2.50;99.90;;;;;;5007381;28;20034;-64
2023/04/05 06:03:59;;;;;;;11.60;4.35;;;2.90;99.90;;;;;;5008005;28;20038;-64
2023/04/05 06:06:25;;;;;;;7.50;3.45;;;3.20;99.90;;;;;;5003576;28;20037;-65
2023/04/05 06:08:51;;;;;;;10.35;3.55;;;3.50;99.90;;;;;;5008814;28;20522;-63
2023/04/05 06:11:22;;;;;;;12.18;3.85;;;3.90;99.90;;;;;;5006545;28;20484;-63
2023/04/05 06:13:50;;;;;;;6.63;3.13;;;4.70;99.90;;;;;;5008508;28;20121;-64
2023/04/05 06:16:16;;;;;;;6.47;3.15;;;5.60;98.60;;;;;;4991746;28;20060;-65
2023/04/05 06:18:42;;;;;;;9.57;3.13;;;6.50;96.70;;;;;;5005112;28;20037;-64
2023/04/05 06:21:07;;;;;;;4.85;2.83;;;7.40;95.10;;;;;;5005730;28;20112;-63
2023/04/05 06:23:33;;;;;;;5.50;2.65;;;7.40;93.70;;;;;;5008544;28;20211;-65
2023/04/05 06:25:59;;;;;;;5.90;3.17;;;7.10;93.80;;;;;;5004440;28;20034;-65
2023/04/05 06:28:24;;;;;;;10.30;3.42;;;6.40;94.90;;;;;;5005768;28;20034;-64
2023/04/05 06:30:50;;;;;;;7.30;3.80;;;6.40;95.90;;;;;;5007186;28;20046;-64
2023/04/05 06:33:15;;;;;;;6.45;2.47;;;6.80;94.90;;;;;;5001249;28;20045;-64
2023/04/05 06:35:41;;;;;;;6.75;3.10;;;7.10;93.90;;;;;;5005673;28;20022;-65
2023/04/05 06:38:06;;;;;;;9.15;3.20;;;7.30;93.30;;;;;;5008120;28;20041;-64
2023/04/05 06:40:32;;;;;;;5.20;2.70;;;7.40;93.80;;;;;;5005332;28;20242;-65
2023/04/05 06:42:58;;;;;;;5.82;2.80;;;7.10;93.70;;;;;;5010983;28;20034;-65
2023/04/05 06:45:23;;;;;;;8.65;3.47;;;7.00;93.30;;;;;;5009056;28;20030;-64
2023/04/05 06:47:49;;;;;;;5.85;2.65;;;7.50;92.90;;;;;;5007693;28;20029;-64
2023/04/05 06:50:15;;;;;;;5.35;2.97;;;7.40;92.90;;;;;;5005732;28;20030;-65
2023/04/05 06:52:40;;;;;;;7.45;2.95;;;7.50;92.80;;;;;;5011731;28;20030;-64
2023/04/05 06:55:07;;;;;;;7.68;3.40;;;7.80;92.90;;;;;;5005190;28;20030;-65
2023/04/05 06:57:33;;;;;;;6.45;3.17;;;8.60;92.50;;;;;;5008478;28;20030;-65
2023/04/05 06:59:58;;;;;;;9.70;3.08;;;9.60;91.50;;;;;;5005135;28;20497;-64
2023/04/05 07:02:24;;;;;;;7.88;3.42;;;10.90;88.60;;;;;;5009892;28;20056;-66
2023/04/05 07:04:50;;;;;;;4.93;3.20;;;12.10;86.50;;;;;;5008227;28;20022;-63
2023/04/05 07:07:16;;;;;;;6.15;2.67;;;13.30;83.40;;;;;;5009643;28;20022;-63
2023/04/05 07:09:42;;;;;;;5.45;2.60;;;13.60;81.40;;;;;;5009604;28;20025;-64
2023/04/05 07:12:08;;;;;;;4.43;2.40;;;14.20;79.80;;;;;;5007557;28;20022;-63
2023/04/05 07:14:35;;;;;;;5.80;2.40;;;15.10;75.50;;;;;;4980325;28;20058;-63
2023/04/05 07:17:03;;;;;;;5.95;2.67;;;15.60;73.30;;;;;;5009502;28;20514;-63
2023/04/05 07:19:29;;;;;;;7.30;2.33;;;14.80;73.50;;;;;;5007541;28;20049;-63
2023/04/05 07:21:55;;;;;;;4.03;2.42;;;14.50;74.80;;;;;;5044869;23;20045;-66
2023/04/05 07:24:20;;;;;;;5.50;2.63;;;14.80;75.50;;;;;;5028103;28;20029;-67
2023/04/05 07:26:46;;;;;;;4.40;2.13;;;14.70;72.30;;;;;;5027592;28;20101;-66
2023/04/05 07:29:12;;;;;;;5.93;2.63;;;15.70;70.40;;;;;;5030585;28;20104;-66
2023/04/05 07:31:38;;;;;;;4.93;2.22;;;16.60;70.70;;;;;;5026112;28;20030;-66
2023/04/05 07:34:04;;;;;;;3.10;2.17;;;17.60;66.70;;;;;;5010794;28;20026;-66
2023/04/05 07:36:30;;;;;;;4.00;2.10;;;16.40;68.20;;;;;;5006497;28;20030;-66
2023/04/05 07:38:59;;;;;;;4.22;2.72;;;16.70;65.90;;;;;;5010535;28;20101;-66
2023/04/05 07:41:27;;;;;;;4.55;2.38;;;16.60;65.90;;;;;;5009599;28;20049;-66
2023/04/05 07:43:52;;;;;;;5.50;2.70;;;16.50;68.30;;;;;;5009510;28;20029;-67
2023/04/05 07:46:20;;;;;;;3.90;2.10;;;15.80;67.00;;;;;;5009414;28;20022;-66
2023/04/05 07:48:47;;;;;;;6.15;2.70;;;16.80;66.60;;;;;;5010388;28;20030;-67
2023/04/05 07:51:13;;;;;;;8.63;3.22;;;16.20;67.00;;;;;;5007448;28;20026;-66
2023/04/05 07:53:39;;;;;;;6.40;2.42;;;16.70;65.20;;;;;;5008399;28;20498;-66
2023/04/05 07:56:09;;;;;;;3.90;2.28;;;16.70;65.80;;;;;;5007401;28;20526;-66
2023/04/05 07:58:38;;;;;;;3.85;2.55;;;16.70;65.40;;;;;;5012191;28;20025;-67
2023/04/05 08:01:04;;;;;;;3.70;2.38;;;16.90;63.90;;;;;;5005829;28;20022;-66
2023/04/05 08:03:31;;;;;;;6.47;2.78;;;16.40;65.80;;;;;;5007667;28;20026;-66
2023/04/05 08:05:57;;;;;;;6.97;2.20;;;16.60;66.10;;;;;;5006332;28;20543;-66
2023/04/05 08:08:26;;;;;;;4.65;2.30;;;17.20;63.10;;;;;;5010331;28;20037;-67
2023/04/05 08:10:51;;;;;;;4.90;2.60;;;16.90;65.20;;;;;;5009888;28;20112;-67
2023/04/05 08:13:17;;;;;;;6.35;2.30;;;16.70;63.90;;;;;;5010978;28;20080;-67
2023/04/05 08:15:42;;;;;;;3.70;2.33;;;17.20;64.10;;;;;;4993081;28;20061;-66
2023/04/05 08:18:08;;;;;;;4.43;2.65;;;17.80;62.60;;;;;;5008007;28;20609;-66
2023/04/05 08:20:37;;;;;;;4.72;2.50;;;17.80;61.50;;;;;;5005795;28;20029;-66
2023/04/05 08:23:04;;;;;;;4.72;2.30;;;17.50;61.30;;;;;;5010201;28;20032;-67
2023/04/05 08:25:29;;;;;;;4.72;2.30;;;16.80;63.10;;;;;;5006450;28;20037;-66
2023/04/05 08:27:55;;;;;;;4.72;2.67;;;16.90;62.50;;;;;;5005974;28;20033;-67
2023/04/05 08:30:22;;;;;;;5.43;2.55;;;16.20;63.90;;;;;;5007748;28;20026;-67
2023/04/05 08:32:48;;;;;;;4.63;2.53;;;15.70;64.60;;;;;;5007264;28;20065;-66
2023/04/05 08:35:14;;;;;;;6.90;2.40;;;15.40;64.10;;;;;;5008177;28;20658;-67
2023/04/05 08:37:40;;;;;;;19.42;2.95;;;16.10;65.60;;;;;;5007239;28;20122;-67
2023/04/05 08:40:07;;;;;;;5.43;2.17;;;16.40;63.00;;;;;;5008762;28;20049;-67
2023/04/05 08:43:00;;;;;;;5.95;2.53;;;16.50;64.00;;;;;;5011983;28;20026;-66
2023/04/05 08:45:25;;;;;;;3.80;2.67;;;16.40;62.80;;;;;;5004860;28;20160;-66
2023/04/05 08:47:53;;;;;;;4.45;2.30;;;16.90;63.20;;;;;;5012036;28;20101;-67
2023/04/05 08:50:18;;;;;;;6.63;3.15;;;17.60;61.30;;;;;;5008176;28;20026;-67
2023/04/05 08:52:48;;;;;;;5.20;2.00;;;17.00;61.00;;;;;;5007313;28;20526;-67
2023/04/05 08:55:15;;;;;;;4.10;2.30;;;16.50;61.90;;;;;;5005112;28;20022;-66
2023/04/05 08:57:43;;;;;;;6.78;2.42;;;17.10;61.10;;;;;;5009025;28;20045;-67
2023/04/05 09:00:10;;;;;;;3.45;2.58;;;17.00;61.50;;;;;;5012196;28;20030;-67
2023/04/05 09:02:36;;;;;;;4.75;2.10;;;17.70;60.10;;;;;;5011058;28;20034;-67
2023/04/05 09:05:07;;;;;;;7.85;2.80;;;16.90;60.40;;;;;;5011316;28;20022;-67
2023/04/05 09:07:34;;;;;;;4.63;2.45;;;16.40;62.30;;;;;;5010873;28;20080;-67
2023/04/05 09:10:00;;;;;;;6.55;2.47;;;16.40;62.60;;;;;;5010430;28;20068;-66
2023/04/05 09:12:26;;;;;;;4.10;2.00;;;16.00;61.20;;;;;;5009737;28;20054;-67
2023/04/05 09:14:53;;;;;;;5.70;2.70;;;15.80;62.60;;;;;;4996441;28;20026;-66
2023/04/05 09:17:18;;;;;;;5.55;2.38;;;15.80;62.30;;;;;;5011219;28;20033;-67
2023/04/05 09:19:44;;;;;;;5.20;2.70;;;15.50;61.70;;;;;;5009569;28;20427;-67
2023/04/05 09:22:10;;;;;;;6.00;2.65;;;15.80;62.60;;;;;;5006597;28;20133;-65
2023/04/05 09:24:43;;;;;;;5.45;2.13;;;16.10;62.50;;;;;;5011400;28;20558;-67
2023/04/05 09:27:09;;;;;;;10.90;2.15;;;17.00;61.00;;;;;;5016088;28;20387;-67
2023/04/05 09:29:35;;;;;;;3.78;2.28;;;17.30;60.90;;;;;;5011567;28;20026;-66
2023/04/05 09:32:05;;;;;;;4.53;2.20;;;17.50;58.70;;;;;;5015106;28;20423;-66
2023/04/05 09:34:32;;;;;;;5.22;2.60;;;17.20;59.70;;;;;;5024509;28;20026;-66
2023/04/05 09:37:00;;;;;;;4.25;2.53;;;16.90;59.70;;;;;;5012387;28;20029;-66
2023/04/05 09:39:31;;;;;;;4.15;2.60;;;16.60;61.00;;;;;;5012651;28;20018;-67
2023/04/05 09:42:11;;;;;;;4.93;2.50;;;16.00;60.00;;;;;;5010287;28;20033;-66
2023/04/05 09:45:01;;;;;;;4.03;2.55;;;16.20;58.60;;;;;;5010420;28;20369;-67
2023/04/05 09:47:31;;;;;;;5.43;2.47;;;16.70;60.10;;;;;;5011125;28;20057;-66
2023/04/05 09:50:05;;;;;;;5.53;1.90;;;16.20;57.40;;;;;;5006791;28;20160;-66
2023/04/05 09:52:32;;;;;;;5.13;2.33;;;16.30;58.40;;;;;;5012774;28;20054;-66
2023/04/05 09:55:03;;;;;;;4.80;2.90;;;17.00;58.20;;;;;;5008338;28;20410;-66
2023/04/05 09:57:33;;;;;;;3.65;2.38;;;16.60;58.40;;;;;;5014247;28;20026;-66
2023/04/05 09:59:59;;;;;;;3.97;2.60;;;15.80;60.00;;;;;;5011664;28;20030;-66
2023/04/05 10:02:33;;;;;;;5.38;3.15;;;15.80;58.10;;;;;;5007650;28;20061;-66
2023/04/05 10:05:12;;;;;;;5.03;3.17;;;15.40;59.30;;;;;;5009479;28;20029;-65
2023/04/05 10:07:41;;;;;;;5.07;2.92;;;14.80;58.40;;;;;;5010082;28;20049;-65
2023/04/05 10:10:09;;;;;;;5.20;2.90;;;14.30;60.30;;;;;;5011660;28;20026;-65
2023/04/05 10:12:38;;;;;;;6.18;2.95;;;14.10;61.40;;;;;;5010030;28;20504;-66
2023/04/05 10:15:05;;;;;;;5.80;3.13;;;13.60;63.00;;;;;;5009550;28;20049;-65
2023/04/05 10:17:36;;;;;;;6.35;2.92;;;13.60;62.40;;;;;;4992545;28;20100;-65
2023/04/05 10:20:19;;;;;;;6.63;2.88;;;13.90;61.90;;;;;;5009497;28;20022;-65
2023/04/05 10:22:58;;;;;;;5.28;3.08;;;13.90;61.30;;;;;;5002127;28;20026;-66
2023/04/05 10:25:49;;;;;;;5.68;3.00;;;13.50;61.10;;;;;;5006137;28;20037;-66
2023/04/05 10:28:36;;;;;;;9.35;3.03;;;13.20;60.30;;;;;;5006777;28;20408;-66
2023/04/05 10:31:22;;;;;;;7.65;2.88;;;12.70;61.80;;;;;;5002660;28;20392;-66
2023/04/05 10:34:02;;;;;;;6.35;2.80;;;12.30;64.00;;;;;;5010642;28;20036;-66
2023/04/05 10:36:55;;;;;;;7.78;2.92;;;12.10;62.50;;;;;;5002618;28;20065;-66
2023/04/05 10:39:31;;;;;;;5.18;3.03;;;12.00;67.10;;;;;;5009218;28;20107;-66
2023/04/05 10:42:10;;;;;;;5.93;2.85;;;12.20;65.10;;;;;;5003900;28;20479;-66
2023/04/05 10:44:38;;;;;;;5.53;2.53;;;11.90;65.30;;;;;;5009039;28;20100;-66
2023/04/05 10:47:05;;;;;;;8.00;3.15;;;11.90;66.40;;;;;;5003166;28;20022;-66
2023/04/05 10:49:46;;;;;;;5.60;3.55;;;12.20;65.30;;;;;;5006711;28;20069;-65
2023/04/05 10:52:12;;;;;;;5.57;2.80;;;12.30;66.70;;;;;;5007244;28;20026;-66
2023/04/05 10:54:39;;;;;;;6.78;3.30;;;12.40;63.80;;;;;;5010945;28;20483;-66
2023/04/05 10:57:07;;;;;;;5.32;2.88;;;12.70;62.30;;;;;;5006048;28;20026;-66
2023/04/05 10:59:34;;;;;;;5.68;3.08;;;12.60;63.20;;;;;;5002868;28;20034;-66
2023/04/05 11:02:01;;;;;;;5.72;2.95;;;12.40;64.10;;;;;;5008148;28;20059;-66
2023/04/05 11:04:26;;;;;;;10.15;3.60;;;12.00;64.90;;;;;;5009664;28;20502;-66
2023/04/05 11:07:24;;;;;;;5.20;2.80;;;12.20;63.00;;;;;;5011041;28;20033;-65
2023/04/05 11:09:53;;;;;;;8.57;2.85;;;12.20;62.90;;;;;;4998077;28;20041;-67
2023/04/05 11:12:18;;;;;;;7.80;2.63;;;12.00;62.50;;;;;;5007856;28;20030;-66
2023/04/05 11:14:44;;;;;;;6.38;3.25;;;12.10;62.60;;;;;;5016906;28;20022;-65
2023/04/05 11:17:36;;;;;;;5.18;2.95;;;11.90;64.00;;;;;;4988228;28;20093;-65
2023/04/05 11:20:10;;;;;;;5.55;2.67;;;11.60;63.70;;;;;;5005636;28;20033;-64
2023/04/05 11:22:35;;;;;;;4.72;2.85;;;11.60;63.80;;;;;;5010648;28;20109;-66
2023/04/05 11:25:01;;;;;;;4.40;2.85;;;11.80;63.40;;;;;;5010741;28;20435;-66
2023/04/05 11:27:29;;;;;;;7.20;3.88;;;12.00;61.80;;;;;;5008868;28;20025;-66
2023/04/05 11:29:56;;;;;;;6.93;2.85;;;11.90;62.80;;;;;;5010496;28;20026;-66
2023/04/05 11:32:22;;;;;;;8.20;3.28;;;11.90;62.60;;;;;;5010356;28;20041;-66
2023/04/05 11:35:05;;;;;;;5.70;2.40;;;11.60;64.20;;;;;;5008425;28;20022;-66
2023/04/05 11:38:04;;;;;;;5.40;2.45;;;11.90;63.70;;;;;;5004684;28;20100;-66
2023/04/05 11:40:35;;;;;;;7.72;2.72;;;12.10;64.40;;;;;;5017019;28;20049;-67
2023/04/05 11:43:07;;;;;;;5.85;2.60;;;12.10;64.60;;;;;;5003352;28;20026;-66
2023/04/05 11:45:34;;;;;;;5.55;2.70;;;12.20;61.70;;;;;;5001078;28;20108;-66
2023/04/05 11:48:05;;;;;;;6.88;2.30;;;12.20;62.10;;;;;;5007933;28;20053;-65
2023/04/05 11:50:30;;;;;;;5.80;2.67;;;12.20;62.60;;;;;;5008713;28;20029;-66
2023/04/05 11:53:12;;;;;;;5.50;2.28;;;12.10;60.30;;;;;;5008915;28;20030;-68
2023/04/05 11:55:39;;;;;;;4.38;2.50;;;11.90;60.00;;;;;;5008133;28;20025;-66
2023/04/05 11:58:35;;;;;;;4.20;2.58;;;11.80;60.40;;;;;;5008618;28;20020;-65
2023/04/05 12:01:03;;;;;;;6.70;2.65;;;11.50;61.20;;;;;;4996265;28;20041;-66
2023/04/05 12:03:29;;;;;;;3.95;2.60;;;11.60;63.20;;;;;;5009217;28;20515;-65
2023/04/05 12:05:57;;;;;;;4.07;3.00;;;11.50;61.90;;;;;;5006525;28;20488;-66
2023/04/05 12:08:36;;;;;;;5.60;2.75;;;11.70;63.60;;;;;;5006594;28;20606;-66
2023/04/05 12:11:01;;;;;;;4.57;2.35;;;11.60;61.90;;;;;;5007256;28;20049;-66
2023/04/05 12:13:36;;;;;;;7.57;3.10;;;11.70;62.70;;;;;;5010092;28;20026;-66
2023/04/05 12:16:04;;;;;;;6.70;2.78;;;11.80;62.60;;;;;;5013334;28;20091;-66
2023/04/05 12:18:32;;;;;;;6.13;3.50;;;11.80;62.80;;;;;;4987245;28;20042;-66
2023/04/05 12:20:59;;;;;;;5.07;2.40;;;11.80;64.00;;;;;;5007796;28;20034;-66
2023/04/05 12:23:25;;;;;;;4.22;2.60;;;11.70;63.20;;;;;;5003423;28;20041;-66
2023/04/05 12:25:54;;;;;;;5.45;2.55;;;11.50;62.40;;;;;;5005096;28;20753;-66
2023/04/05 12:28:20;;;;;;;5.32;2.90;;;11.40;63.20;;;;;;5009661;28;20038;-66
2023/04/05 12:30:53;;;;;;;7.63;3.00;;;11.40;63.50;;;;;;5020943;28;20056;-66
2023/04/05 12:33:34;;;;;;;7.82;3.13;;;11.50;62.30;;;;;;5022989;28;20045;-66
2023/04/05 12:36:04;;;;;;;3.40;2.15;;;11.40;62.20;;;;;;5010224;28;20030;-66
2023/04/05 12:38:30;;;;;;;3.10;2.00;;;11.40;64.10;;;;;;5014800;28;20033;-66
2023/04/05 12:41:00;;;;;;;4.63;2.40;;;11.50;62.90;;;;;;5011087;28;20365;-65
2023/04/05 12:43:25;;;;;;;6.75;3.10;;;11.60;63.80;;;;;;5003939;28;20690;-66
2023/04/05 12:45:55;;;;;;;7.20;2.90;;;11.70;64.10;;;;;;5012388;28;20034;-66
2023/04/05 12:48:24;;;;;;;3.03;2.17;;;11.70;63.10;;;;;;5009901;28;20049;-66
2023/04/05 12:50:53;;;;;;;5.70;3.13;;;11.60;61.90;;;;;;4997928;28;20060;-66
2023/04/05 12:53:24;;;;;;;5.05;3.20;;;11.40;63.10;;;;;;5002491;28;20076;-66
2023/04/05 12:55:54;;;;;;;4.68;3.08;;;11.60;64.00;;;;;;5007777;28;20573;-66
2023/04/05 12:58:22;;;;;;;5.50;2.78;;;11.20;63.90;;;;;;5009520;28;20029;-66
2023/04/05 13:00:48;;;;;;;7.13;3.13;;;11.20;62.40;;;;;;5008517;28;20049;-66